createdAt,value
2022-12-08T00:02:14.018Z,84.96
2022-12-08T00:04:43.961Z,84.08
2022-12-08T00:07:10.622Z,84.50
2022-12-08T00:09:40.469Z,84.21
2022-12-08T00:12:11.723Z,84.41
2022-12-08T00:14:39.911Z,85.51
2022-12-08T00:17:08.827Z,86.07
2022-12-08T00:19:36.285Z,86.08
2022-12-08T00:22:03.204Z,84.30
2022-12-08T00:24:32.346Z,84.10
2022-12-08T00:26:58.974Z,84.00
2022-12-08T00:29:25.692Z,83.49
2022-12-08T00:31:52.592Z,83.76
2022-12-08T00:34:20.097Z,83.28
2022-12-08T00:36:47.109Z,84.67
2022-12-08T00:39:15.465Z,85.55
2022-12-08T00:41:42.277Z,85.49
2022-12-08T00:44:10.542Z,85.46
2022-12-08T00:46:37.799Z,84.20
2022-12-08T00:49:05.799Z,84.07
2022-12-08T00:51:32.885Z,83.94
2022-12-08T00:53:59.585Z,83.32
2022-12-08T00:56:26.950Z,84.06
2022-12-08T00:58:53.699Z,83.28
2022-12-08T01:01:20.380Z,83.73
2022-12-08T01:03:47.707Z,84.40
2022-12-08T01:06:14.366Z,84.39
2022-12-08T01:08:41.437Z,83.49
2022-12-08T01:11:11.574Z,82.70
2022-12-08T01:13:38.604Z,83.08
2022-12-08T01:16:05.604Z,83.23
2022-12-08T01:18:32.863Z,82.80
2022-12-08T01:21:04.882Z,82.96
2022-12-08T01:23:31.680Z,82.90
2022-12-08T01:26:05.517Z,82.91
2022-12-08T01:28:32.791Z,82.79
2022-12-08T01:31:01.167Z,82.39
2022-12-08T01:33:28.634Z,82.19
2022-12-08T01:35:55.910Z,83.14
2022-12-08T01:38:23.230Z,83.23
2022-12-08T01:40:49.888Z,83.11
2022-12-08T01:43:20.690Z,82.53
2022-12-08T01:45:47.776Z,82.55
2022-12-08T01:48:27.316Z,82.50
2022-12-08T01:50:55.794Z,82.84
2022-12-08T01:53:29.764Z,83.25
2022-12-08T01:56:02.750Z,82.63
2022-12-08T01:58:35.215Z,82.92
2022-12-08T02:01:02.123Z,82.75
2022-12-08T02:03:49.339Z,83.60
2022-12-08T02:06:17.791Z,82.88
2022-12-08T02:08:45.906Z,82.49
2022-12-08T02:11:13.316Z,82.23
2022-12-08T02:13:43.061Z,84.21
2022-12-08T02:16:28.253Z,83.40
2022-12-08T02:19:31.207Z,83.35
2022-12-08T02:22:07.229Z,83.45
2022-12-08T02:24:50.393Z,82.78
2022-12-08T02:27:19.749Z,82.62
2022-12-08T02:30:05.096Z,83.01
2022-12-08T02:32:44.509Z,81.87
2022-12-08T02:35:43.334Z,82.44
2022-12-08T02:38:16.833Z,81.75
2022-12-08T02:40:46.564Z,81.96
2022-12-08T02:43:21.070Z,81.94
2022-12-08T02:45:52.295Z,81.85
2022-12-08T02:48:19.073Z,81.62
2022-12-08T02:50:45.981Z,81.00
2022-12-08T02:56:02.742Z,79.97
2022-12-08T02:58:38.391Z,80.35
2022-12-08T03:01:31.113Z,81.54
2022-12-08T03:04:10.145Z,80.75
2022-12-08T03:07:01.518Z,80.75
2022-12-08T03:09:40.268Z,80.75
2022-12-08T03:12:19.977Z,80.87
2022-12-08T03:14:50.459Z,82.62
2022-12-08T03:17:21.751Z,82.68
2022-12-08T03:19:49.262Z,82.85
2022-12-08T03:22:21.985Z,83.22
2022-12-08T03:24:49.519Z,83.32
2022-12-08T03:27:19.888Z,83.34
2022-12-08T03:29:52.106Z,82.25
2022-12-08T03:32:47.591Z,83.38
2022-12-08T03:35:17.640Z,82.81
2022-12-08T03:37:44.578Z,82.95
2022-12-08T03:40:14.938Z,83.14
2022-12-08T03:42:41.937Z,83.60
2022-12-08T03:45:08.879Z,83.59
2022-12-08T03:47:35.466Z,82.75
2022-12-08T03:50:02.563Z,83.02
2022-12-08T03:52:29.373Z,83.17
2022-12-08T03:54:56.034Z,83.07
2022-12-08T03:57:22.684Z,82.35
2022-12-08T03:59:49.326Z,83.04
2022-12-08T04:02:15.955Z,83.17
2022-12-08T04:04:43.201Z,83.60
2022-12-08T04:07:09.817Z,83.40
2022-12-08T04:09:36.489Z,83.31
2022-12-08T04:12:03.231Z,83.17
2022-12-08T04:14:29.930Z,82.06
2022-12-08T04:16:56.491Z,82.31
2022-12-08T04:19:23.273Z,81.10
2022-12-08T04:21:49.868Z,82.53
2022-12-08T04:24:16.577Z,84.01
2022-12-08T04:26:43.282Z,84.58
2022-12-08T04:29:10.278Z,84.30
2022-12-08T04:31:39.081Z,83.90
2022-12-08T04:34:05.855Z,83.81
2022-12-08T04:36:32.747Z,82.68
2022-12-08T04:39:00.016Z,82.32
2022-12-08T04:41:26.714Z,81.33
2022-12-08T04:43:53.432Z,81.50
2022-12-08T04:46:20.077Z,81.37
2022-12-08T04:48:46.850Z,80.55
2022-12-08T04:51:16.943Z,80.84
2022-12-08T04:53:46.643Z,81.14
2022-12-08T04:56:21.066Z,80.14
2022-12-08T04:58:47.731Z,80.54
2022-12-08T05:01:14.701Z,80.34
2022-12-08T05:03:41.543Z,79.95
2022-12-08T05:06:11.835Z,80.29
2022-12-08T05:08:38.470Z,80.57
2022-12-08T05:11:07.170Z,80.46
2022-12-08T05:13:33.914Z,80.39
2022-12-08T05:16:05.616Z,79.98
2022-12-08T05:18:32.450Z,80.30
2022-12-08T05:20:59.083Z,79.58
2022-12-08T05:23:26.603Z,80.30
2022-12-08T05:25:53.465Z,80.24
2022-12-08T05:28:40.697Z,81.31
2022-12-08T05:31:07.259Z,81.89
2022-12-08T05:33:33.867Z,81.56
2022-12-08T05:36:00.566Z,81.83
2022-12-08T05:38:27.233Z,81.62
2022-12-08T05:40:53.868Z,81.02
2022-12-08T05:43:20.572Z,80.27
2022-12-08T05:45:47.312Z,80.20
2022-12-08T05:48:13.931Z,79.99
2022-12-08T05:50:45.375Z,80.25
2022-12-08T05:53:12.138Z,79.95
2022-12-08T05:55:38.717Z,79.67
2022-12-08T05:58:08.154Z,80.09
2022-12-08T06:00:34.925Z,79.73
2022-12-08T06:03:01.783Z,80.26
2022-12-08T06:05:28.467Z,80.35
2022-12-08T06:07:55.348Z,80.03
2022-12-08T06:10:21.962Z,79.91
2022-12-08T06:12:48.648Z,80.59
2022-12-08T06:15:15.495Z,81.01
2022-12-08T06:17:42.129Z,82.20
2022-12-08T06:20:09.183Z,81.90
2022-12-08T06:22:36.647Z,81.59
2022-12-08T06:25:07.170Z,82.55
2022-12-08T06:27:36.394Z,81.85
2022-12-08T06:30:03.758Z,82.55
2022-12-08T06:32:31.005Z,82.42
2022-12-08T06:34:57.662Z,81.85
2022-12-08T06:37:24.451Z,83.19
2022-12-08T06:39:51.027Z,83.43
2022-12-08T06:42:17.734Z,82.39
2022-12-08T06:44:44.426Z,82.63
2022-12-08T06:47:11.136Z,82.72
2022-12-08T06:49:37.743Z,82.22
2022-12-08T06:52:04.784Z,82.32
2022-12-08T06:54:31.359Z,83.10
2022-12-08T06:56:58.029Z,82.66
2022-12-08T06:59:24.790Z,83.33
2022-12-08T07:01:52.073Z,82.83
2022-12-08T07:04:18.742Z,82.78
2022-12-08T07:06:45.510Z,84.69
2022-12-08T07:09:12.093Z,84.20
2022-12-08T07:11:39.260Z,84.05
2022-12-08T07:14:05.942Z,82.92
2022-12-08T07:16:32.727Z,81.58
2022-12-08T07:19:00.293Z,82.33
2022-12-08T07:21:27.026Z,82.73
2022-12-08T07:23:57.574Z,83.37
2022-12-08T07:26:24.995Z,83.05
2022-12-08T07:28:51.706Z,84.10
2022-12-08T07:31:23.679Z,84.58
2022-12-08T07:33:50.742Z,85.30
2022-12-08T07:36:17.577Z,84.38
2022-12-08T07:38:44.733Z,83.83
2022-12-08T07:41:19.940Z,84.61
2022-12-08T07:43:47.070Z,84.65
2022-12-08T07:46:16.269Z,85.10
2022-12-08T07:48:43.286Z,85.47
2022-12-08T07:51:11.630Z,85.43
2022-12-08T07:53:45.295Z,85.68
2022-12-08T07:56:14.220Z,84.74
2022-12-08T07:58:41.452Z,84.65
2022-12-08T08:01:28.840Z,85.14
2022-12-08T08:03:57.224Z,84.94
2022-12-08T08:06:24.263Z,85.15
2022-12-08T08:08:51.056Z,85.15
2022-12-08T08:11:21.410Z,84.85
2022-12-08T08:13:49.926Z,85.04
2022-12-08T08:16:17.904Z,84.64
2022-12-08T08:18:50.241Z,85.38
2022-12-08T08:24:05.720Z,84.91
2022-12-08T08:26:33.623Z,84.98
2022-12-08T08:29:00.300Z,84.31
2022-12-08T08:31:27.441Z,83.91
2022-12-08T08:33:55.717Z,83.97
2022-12-08T08:36:22.386Z,84.11
2022-12-08T08:38:49.027Z,83.69
2022-12-08T08:41:15.823Z,84.21
2022-12-08T08:43:43.408Z,83.54
2022-12-08T08:46:10.211Z,84.80
2022-12-08T08:48:38.178Z,85.84
2022-12-08T08:51:12.627Z,85.23
2022-12-08T08:53:40.503Z,85.12
2022-12-08T08:56:11.911Z,84.15
2022-12-08T08:58:38.903Z,83.85
2022-12-08T09:01:07.049Z,83.19
2022-12-08T09:03:34.131Z,83.38
2022-12-08T09:06:00.816Z,84.64
2022-12-08T09:08:28.547Z,85.00
2022-12-08T09:10:55.217Z,84.67
2022-12-08T09:13:21.877Z,83.89
2022-12-08T09:15:48.572Z,84.67
2022-12-08T09:18:15.282Z,84.10
2022-12-08T09:20:41.876Z,84.13
2022-12-08T09:23:09.241Z,84.41
2022-12-08T09:25:35.824Z,83.57
2022-12-08T09:28:02.502Z,82.85
2022-12-08T09:30:29.171Z,82.86
2022-12-08T09:32:55.959Z,82.95
2022-12-08T09:35:22.529Z,82.48
2022-12-08T09:37:49.290Z,82.91
2022-12-08T09:40:19.835Z,82.11
2022-12-08T09:42:54.379Z,81.88
2022-12-08T09:45:23.401Z,81.97
2022-12-08T09:47:59.082Z,81.70
2022-12-08T09:50:46.550Z,83.03
2022-12-08T09:53:23.400Z,82.63
2022-12-08T09:55:55.615Z,83.22
2022-12-08T09:58:51.095Z,83.43
2022-12-08T10:01:18.984Z,83.69
2022-12-08T10:03:45.593Z,83.96
2022-12-08T10:06:51.452Z,82.94
2022-12-08T10:09:45.521Z,83.38
2022-12-08T10:12:16.264Z,83.35
2022-12-08T10:14:55.876Z,82.92
2022-12-08T10:17:27.027Z,83.00
2022-12-08T10:20:04.015Z,83.50
2022-12-08T10:22:38.663Z,82.28
2022-12-08T10:25:20.791Z,82.90
2022-12-08T10:27:52.091Z,84.19
2022-12-08T10:30:20.842Z,84.56
2022-12-08T10:32:52.894Z,84.40
2022-12-08T10:35:24.568Z,83.56
2022-12-08T10:37:59.929Z,83.67
2022-12-08T10:40:34.911Z,83.77
2022-12-08T10:43:03.367Z,84.02
2022-12-08T10:45:37.047Z,83.00
2022-12-08T10:48:12.739Z,82.77
2022-12-08T10:51:04.507Z,82.68
2022-12-08T10:53:34.063Z,82.08
2022-12-08T10:56:03.775Z,82.57
2022-12-08T10:58:30.491Z,82.93
2022-12-08T11:01:22.090Z,82.42
2022-12-08T11:03:57.495Z,82.62
2022-12-08T11:06:32.192Z,83.28
2022-12-08T11:09:02.672Z,83.32
2022-12-08T11:11:57.677Z,83.01
2022-12-08T11:14:30.862Z,83.25
2022-12-08T11:17:08.342Z,84.15
2022-12-08T11:19:48.214Z,84.04
2022-12-08T11:22:56.900Z,83.59
2022-12-08T11:25:28.116Z,82.68
2022-12-08T11:27:58.423Z,82.15
2022-12-08T11:30:29.843Z,82.22
2022-12-08T11:33:01.896Z,82.71
2022-12-08T11:35:45.474Z,82.30
2022-12-08T11:38:21.568Z,81.95
2022-12-08T11:41:00.459Z,82.37
2022-12-08T11:43:35.550Z,82.29
2022-12-08T11:46:15.212Z,83.26
2022-12-08T11:49:01.254Z,82.21
2022-12-08T11:51:37.349Z,82.73
2022-12-08T11:54:18.969Z,81.62
2022-12-08T11:56:53.952Z,82.74
2022-12-08T11:59:35.728Z,82.93
2022-12-08T12:02:05.226Z,83.23
2022-12-08T12:04:39.693Z,83.31
2022-12-08T12:07:29.132Z,82.71
2022-12-08T12:10:33.297Z,81.67
2022-12-08T12:13:50.491Z,82.76
2022-12-08T12:16:54.655Z,82.17
2022-12-08T12:19:23.746Z,83.60
2022-12-08T12:21:56.325Z,82.43
2022-12-08T12:24:36.075Z,81.18
2022-12-08T12:27:15.576Z,81.42
2022-12-08T12:29:56.440Z,82.00
2022-12-08T12:32:24.487Z,81.55
2022-12-08T12:34:55.269Z,81.61
2022-12-08T12:37:36.006Z,81.86
2022-12-08T12:40:11.918Z,82.29
2022-12-08T12:42:41.086Z,81.55
2022-12-08T12:45:16.758Z,82.20
2022-12-08T12:47:50.877Z,82.24
2022-12-08T12:50:32.938Z,82.43
2022-12-08T12:53:06.815Z,81.42
2022-12-08T12:55:55.877Z,81.32
2022-12-08T12:58:35.751Z,82.11
2022-12-08T13:01:11.438Z,82.13
2022-12-08T13:03:44.056Z,82.20
2022-12-08T13:06:14.555Z,82.03
2022-12-08T13:08:53.289Z,81.39
2022-12-08T13:11:21.171Z,81.82
2022-12-08T13:14:03.717Z,81.03
2022-12-08T13:16:40.938Z,82.08
2022-12-08T13:19:16.110Z,81.72
2022-12-08T13:21:46.186Z,81.59
2022-12-08T13:24:30.372Z,81.85
2022-12-08T13:27:03.080Z,80.88
2022-12-08T13:29:31.691Z,80.96
2022-12-08T13:31:58.961Z,80.30
2022-12-08T13:34:34.814Z,80.39
2022-12-08T13:37:01.560Z,79.81
2022-12-08T13:39:35.512Z,79.27
2022-12-08T13:42:23.813Z,79.61
2022-12-08T13:49:32.043Z,81.22
2022-12-08T13:57:30.420Z,80.86
2022-12-08T14:00:18.832Z,80.85
2022-12-08T14:02:49.940Z,80.79
2022-12-08T14:05:29.790Z,81.41
2022-12-08T14:08:01.922Z,82.11
2022-12-08T14:10:31.131Z,82.02
2022-12-08T14:13:05.771Z,81.26
2022-12-08T14:15:37.601Z,80.70
2022-12-08T14:18:07.073Z,81.27
2022-12-08T14:20:57.736Z,82.12
2022-12-08T14:23:22.335Z,82.12
2022-12-08T14:25:56.266Z,82.28
2022-12-08T14:28:24.384Z,82.23
2022-12-08T14:30:51.010Z,81.28
2022-12-08T14:33:17.894Z,81.91
2022-12-08T14:35:50.782Z,82.20
2022-12-08T14:38:19.558Z,81.36
2022-12-08T14:40:59.322Z,81.29
2022-12-08T14:43:28.230Z,81.23
2022-12-08T14:46:01.535Z,81.28
2022-12-08T14:48:31.299Z,82.26
2022-12-08T14:51:03.665Z,82.89
2022-12-08T14:53:43.899Z,82.42
2022-12-08T14:56:27.190Z,83.35
2022-12-08T14:59:25.676Z,82.58
2022-12-08T15:02:08.951Z,81.71
2022-12-08T15:04:38.904Z,81.94
2022-12-08T15:07:16.078Z,81.88
2022-12-08T15:09:48.942Z,81.18
2022-12-08T15:12:15.561Z,80.98
2022-12-08T15:14:54.286Z,80.26
2022-12-08T15:17:50.915Z,80.61
2022-12-08T15:20:39.992Z,80.54
2022-12-08T15:23:24.828Z,80.05
2022-12-08T15:26:05.958Z,79.91
2022-12-08T15:28:32.737Z,80.19
2022-12-08T15:30:59.374Z,79.82
2022-12-08T15:33:27.041Z,79.09
2022-12-08T15:35:53.986Z,80.14
2022-12-08T15:38:24.634Z,79.58
2022-12-08T15:40:55.878Z,78.70
2022-12-08T15:43:22.958Z,78.66
2022-12-08T15:46:00.091Z,78.85
2022-12-08T15:48:30.325Z,78.43
2022-12-08T15:50:57.532Z,78.78
2022-12-08T15:53:24.200Z,78.73
2022-12-08T15:56:26.531Z,79.17
2022-12-08T15:58:55.293Z,78.67
2022-12-08T16:01:23.961Z,78.99
2022-12-08T16:07:19.691Z,78.33
2022-12-08T16:09:42.286Z,78.57
2022-12-08T16:12:16.839Z,78.86
2022-12-08T16:17:31.528Z,78.96
2022-12-08T16:19:59.199Z,79.19
2022-12-08T16:22:54.166Z,79.96
2022-12-08T16:25:20.698Z,79.56
2022-12-08T16:28:29.544Z,79.67
2022-12-08T16:30:37.755Z,79.13
2022-12-08T16:33:04.902Z,79.25
2022-12-08T16:35:32.035Z,79.28
2022-12-08T16:37:58.713Z,78.84
2022-12-08T16:40:25.745Z,78.84
2022-12-08T16:42:52.404Z,78.98
2022-12-08T16:45:19.139Z,79.66
2022-12-08T16:47:48.602Z,79.25
2022-12-08T16:50:21.572Z,78.01
2022-12-08T16:52:49.713Z,79.14
2022-12-08T16:55:18.836Z,79.55
2022-12-08T16:57:46.691Z,79.75
2022-12-08T17:00:16.355Z,79.37
2022-12-08T17:02:43.191Z,79.28
2022-12-08T17:05:12.013Z,78.71
2022-12-08T17:07:38.769Z,79.88
2022-12-08T17:10:07.764Z,79.95
2022-12-08T17:12:34.810Z,79.21
2022-12-08T17:15:10.076Z,78.88
2022-12-08T17:17:37.036Z,79.68
2022-12-08T17:20:15.955Z,79.32
2022-12-08T17:22:42.713Z,78.41
2022-12-08T17:25:09.557Z,77.87
2022-12-08T17:27:36.675Z,77.91
2022-12-08T17:30:05.176Z,78.74
2022-12-08T17:32:32.405Z,78.30
2022-12-08T17:34:59.119Z,78.29
2022-12-08T17:37:26.044Z,78.83
2022-12-08T17:39:52.639Z,78.87
2022-12-08T17:42:19.313Z,79.09
2022-12-08T17:44:46.024Z,79.60
2022-12-08T17:47:12.700Z,78.81
2022-12-08T17:49:41.501Z,78.91
2022-12-08T17:52:08.252Z,78.82
2022-12-08T17:54:37.069Z,78.95
2022-12-08T17:57:04.470Z,80.11
2022-12-08T17:59:31.520Z,80.03
2022-12-08T18:01:59.345Z,80.50
2022-12-08T18:04:27.235Z,80.85
2022-12-08T18:06:54.439Z,81.06
2022-12-08T18:09:21.579Z,80.80
2022-12-08T18:11:49.156Z,80.05
2022-12-08T18:14:16.240Z,80.24
2022-12-08T18:16:45.998Z,80.64
2022-12-08T18:19:14.102Z,79.80
2022-12-08T18:21:41.852Z,80.19
2022-12-08T18:24:16.321Z,79.90
2022-12-08T18:26:43.047Z,81.51
2022-12-08T18:29:09.679Z,81.19
2022-12-08T18:31:36.425Z,81.35
2022-12-08T18:34:03.962Z,80.74
2022-12-08T18:36:30.749Z,81.53
2022-12-08T18:38:58.120Z,80.58
2022-12-08T18:41:25.290Z,81.79
2022-12-08T18:43:56.008Z,81.48
2022-12-08T18:46:24.079Z,81.96
2022-12-08T18:48:51.965Z,81.43
2022-12-08T18:51:22.031Z,81.98
2022-12-08T18:53:49.157Z,82.17
2022-12-08T18:56:28.230Z,81.37
2022-12-08T18:59:02.624Z,82.65
2022-12-08T19:01:31.391Z,82.81
2022-12-08T19:04:26.781Z,81.56
2022-12-08T19:06:46.171Z,81.72
2022-12-08T19:09:13.090Z,81.62
2022-12-08T19:11:41.588Z,81.55
2022-12-08T19:14:08.857Z,81.95
2022-12-08T19:16:35.719Z,81.93
2022-12-08T19:19:02.759Z,81.89
2022-12-08T19:21:29.622Z,81.28
2022-12-08T19:23:56.635Z,80.32
2022-12-08T19:26:23.783Z,80.95
2022-12-08T19:28:50.432Z,80.87
2022-12-08T19:31:17.257Z,80.87
2022-12-08T19:33:55.363Z,80.42
2022-12-08T19:36:23.177Z,80.04
2022-12-08T19:38:49.840Z,80.00
2022-12-08T19:41:17.042Z,79.70
2022-12-08T19:43:43.677Z,79.44
2022-12-08T19:46:10.576Z,79.45
2022-12-08T19:48:37.528Z,79.19
2022-12-08T19:51:05.000Z,79.10
2022-12-08T19:53:31.698Z,79.29
2022-12-08T19:56:00.195Z,79.13
2022-12-08T19:58:26.937Z,79.44
2022-12-08T20:00:53.745Z,79.43
2022-12-08T20:03:22.171Z,79.11
2022-12-08T20:05:51.480Z,78.49
2022-12-08T20:08:18.242Z,78.43
2022-12-08T20:10:45.704Z,78.87
2022-12-08T20:13:13.635Z,79.68
2022-12-08T20:15:40.683Z,79.72
2022-12-08T20:18:11.656Z,79.35
2022-12-08T20:20:40.156Z,78.61
2022-12-08T20:23:07.484Z,78.53
2022-12-08T20:25:34.689Z,78.42
2022-12-08T20:28:01.416Z,78.92
2022-12-08T20:30:28.107Z,78.57
2022-12-08T20:32:54.722Z,78.92
2022-12-08T20:35:21.604Z,78.39
2022-12-08T20:37:48.256Z,78.54
2022-12-08T20:40:15.099Z,78.58
2022-12-08T20:42:41.737Z,78.52
2022-12-08T20:45:09.137Z,78.44
2022-12-08T20:47:36.534Z,78.57
2022-12-08T20:50:05.664Z,78.23
2022-12-08T20:52:32.534Z,78.34
2022-12-08T20:54:59.384Z,78.33
2022-12-08T20:57:26.046Z,78.21
2022-12-08T20:59:52.830Z,78.62
2022-12-08T21:02:19.799Z,78.16
2022-12-08T21:04:46.820Z,78.68
2022-12-08T21:07:13.517Z,78.68
2022-12-08T21:09:40.737Z,79.11
2022-12-08T21:12:07.695Z,78.19
2022-12-08T21:14:34.608Z,78.14
2022-12-08T21:17:01.427Z,78.25
2022-12-08T21:19:28.315Z,79.09
2022-12-08T21:21:55.244Z,79.67
2022-12-08T21:24:22.236Z,79.30
2022-12-08T21:26:49.277Z,78.83
2022-12-08T21:29:16.118Z,79.40
2022-12-08T21:31:42.943Z,79.91
2022-12-08T21:34:10.549Z,80.46
2022-12-08T21:36:37.319Z,80.07
2022-12-08T21:39:04.041Z,80.70
2022-12-08T21:41:30.675Z,80.00
2022-12-08T21:43:57.364Z,80.05
2022-12-08T21:46:24.177Z,80.04
2022-12-08T21:48:50.880Z,79.68
2022-12-08T21:51:17.873Z,79.53
2022-12-08T21:53:44.625Z,79.19
2022-12-08T21:56:11.423Z,79.55
2022-12-08T21:58:38.284Z,79.10
2022-12-08T22:01:10.720Z,79.11
2022-12-08T22:03:39.895Z,79.79
2022-12-08T22:06:08.251Z,80.65
2022-12-08T22:08:35.884Z,80.55
2022-12-08T22:11:03.185Z,79.59
2022-12-08T22:13:30.032Z,79.14
2022-12-08T22:16:02.356Z,79.24
2022-12-08T22:18:29.521Z,79.06
2022-12-08T22:20:56.232Z,78.70
2022-12-08T22:23:23.303Z,78.78
2022-12-08T22:26:00.941Z,78.54
2022-12-08T22:28:31.066Z,78.37
2022-12-08T22:30:57.677Z,78.73
2022-12-08T22:33:24.482Z,78.52
2022-12-08T22:36:01.314Z,79.09
2022-12-08T22:38:31.723Z,79.86
2022-12-08T22:40:58.653Z,80.15
2022-12-08T22:43:25.385Z,79.45
2022-12-08T22:45:52.022Z,79.56
2022-12-08T22:48:18.855Z,80.05
2022-12-08T22:50:45.573Z,79.24
2022-12-08T22:53:12.504Z,79.65
2022-12-08T22:55:45.136Z,78.98
2022-12-08T22:58:12.305Z,79.79
2022-12-08T23:00:39.461Z,79.89
2022-12-08T23:03:06.577Z,80.34
2022-12-08T23:05:38.806Z,80.06
2022-12-08T23:08:07.305Z,79.52
2022-12-08T23:10:34.564Z,79.07
2022-12-08T23:13:03.928Z,79.34
2022-12-08T23:15:31.580Z,78.92
2022-12-08T23:17:58.791Z,78.22
2022-12-08T23:20:25.790Z,78.55
2022-12-08T23:22:52.591Z,77.98
2022-12-08T23:25:19.567Z,78.04
2022-12-08T23:27:47.185Z,78.18
2022-12-08T23:30:15.063Z,77.69
2022-12-08T23:32:41.892Z,78.19
2022-12-08T23:35:08.998Z,78.14
2022-12-08T23:37:36.089Z,78.89
2022-12-08T23:40:03.978Z,78.26
2022-12-08T23:42:31.026Z,79.11
2022-12-08T23:44:57.626Z,79.03
2022-12-08T23:47:24.371Z,78.91
2022-12-08T23:49:51.180Z,79.11
2022-12-08T23:52:17.811Z,78.48
2022-12-08T23:54:44.409Z,78.13
2022-12-08T23:57:11.306Z,78.41
2022-12-08T23:59:37.934Z,79.28
